createdAt,value
2023-05-10T00:09:12.760Z,15.80
2023-05-10T00:19:15.421Z,15.75
2023-05-10T00:29:20.505Z,15.72
2023-05-10T00:39:23.134Z,15.72
2023-05-10T00:49:27.427Z,15.76
2023-05-10T00:59:30.773Z,15.34
2023-05-10T01:09:35.486Z,15.30
2023-05-10T01:19:39.245Z,15.24
2023-05-10T01:30:21.855Z,15.21
2023-05-10T01:40:31.895Z,15.06
2023-05-10T01:50:36.200Z,14.98
2023-05-10T02:00:44.579Z,14.85
2023-05-10T02:10:48.474Z,14.89
2023-05-10T02:20:55.085Z,14.68
2023-05-10T02:30:58.693Z,14.27
2023-05-10T02:41:03.946Z,14.13
2023-05-10T02:51:09.070Z,13.93
2023-05-10T03:01:13.206Z,13.70
2023-05-10T03:11:30.220Z,13.60
2023-05-10T03:21:34.818Z,13.85
2023-05-10T03:31:37.723Z,13.70
2023-05-10T03:41:42.443Z,13.63
2023-05-10T03:51:45.109Z,13.68
2023-05-10T04:01:49.155Z,13.52
2023-05-10T04:11:52.138Z,13.56
2023-05-10T04:21:56.159Z,13.54
2023-05-10T04:31:58.868Z,13.52
2023-05-10T04:42:03.688Z,13.65
2023-05-10T04:52:06.578Z,13.55
2023-05-10T05:02:10.644Z,13.58
2023-05-10T05:12:15.091Z,13.85
2023-05-10T05:22:20.467Z,13.83
2023-05-10T05:32:24.726Z,14.19
2023-05-10T05:42:29.108Z,14.35
2023-05-10T05:52:32.550Z,14.37
2023-05-10T06:02:36.744Z,14.44
2023-05-10T06:12:39.569Z,14.38
2023-05-10T06:22:43.847Z,14.35
2023-05-10T06:32:47.154Z,13.93
2023-05-10T06:42:51.316Z,13.83
2023-05-10T06:52:54.038Z,13.89
2023-05-10T07:02:58.159Z,13.92
2023-05-10T07:13:01.364Z,13.94
2023-05-10T07:23:05.445Z,13.85
2023-05-10T07:33:08.406Z,13.97
2023-05-10T07:43:12.461Z,13.84
2023-05-10T07:53:15.153Z,13.68
2023-05-10T08:03:19.374Z,13.74
2023-05-10T08:13:22.947Z,13.85
2023-05-10T08:23:26.970Z,14.06
2023-05-10T08:33:29.640Z,14.27
2023-05-10T08:43:34.023Z,14.25
2023-05-10T08:53:39.448Z,13.88
2023-05-10T09:03:43.666Z,14.14
2023-05-10T09:13:47.173Z,14.08
2023-05-10T09:23:51.912Z,13.95
2023-05-10T09:33:55.320Z,13.70
2023-05-10T09:43:59.318Z,13.80
2023-05-10T09:54:12.948Z,13.44
2023-05-10T10:04:17.095Z,13.63
2023-05-10T10:14:20.559Z,13.90
2023-05-10T10:24:24.569Z,13.84
2023-05-10T10:34:29.858Z,13.80
2023-05-10T10:44:39.473Z,13.95
2023-05-10T10:54:42.834Z,14.19
2023-05-10T11:04:47.762Z,14.65
2023-05-10T11:14:52.255Z,14.39
2023-05-10T11:25:03.539Z,14.67
2023-05-10T11:35:09.576Z,14.79
2023-05-10T11:45:13.841Z,15.23
2023-05-10T11:55:16.530Z,15.49
2023-05-10T12:05:20.785Z,16.79
2023-05-10T12:15:25.253Z,16.26
2023-05-10T12:25:33.925Z,17.13
2023-05-10T12:35:46.623Z,16.56
2023-05-10T12:45:50.746Z,16.05
2023-05-10T12:55:54.240Z,16.08
2023-05-10T13:05:58.268Z,17.91
2023-05-10T13:16:00.893Z,17.02
2023-05-10T13:26:04.878Z,16.51
2023-05-10T13:36:08.388Z,16.70
2023-05-10T13:46:12.808Z,16.54
2023-05-10T13:56:15.562Z,16.64
2023-05-10T14:06:19.599Z,17.95
2023-05-10T14:16:22.912Z,18.23
2023-05-10T14:26:27.257Z,17.30
2023-05-10T14:36:30.073Z,17.13
2023-05-10T14:46:35.445Z,17.11
2023-05-10T14:56:39.282Z,16.67
2023-05-10T15:06:43.240Z,16.43
2023-05-10T15:16:45.891Z,16.63
2023-05-10T15:26:50.006Z,17.32
2023-05-10T15:36:52.587Z,17.51
2023-05-10T15:46:56.754Z,17.69
2023-05-10T15:57:00.033Z,18.07
2023-05-10T16:07:04.119Z,19.25
2023-05-10T16:17:07.808Z,18.27
2023-05-10T16:27:13.231Z,17.68
2023-05-10T16:37:16.035Z,17.63
2023-05-10T16:47:20.159Z,17.47
2023-05-10T16:57:23.181Z,17.56
2023-05-10T17:07:29.305Z,17.53
2023-05-10T17:17:33.308Z,17.36
2023-05-10T17:27:37.574Z,17.32
2023-05-10T17:37:41.634Z,17.21
2023-05-10T17:47:45.652Z,17.23
2023-05-10T17:57:51.163Z,17.01
2023-05-10T18:07:56.391Z,16.79
2023-05-10T18:17:59.488Z,16.40
2023-05-10T18:28:03.521Z,16.30
2023-05-10T18:38:06.183Z,16.25
2023-05-10T18:48:10.558Z,15.98
2023-05-10T18:58:13.297Z,15.68
2023-05-10T19:08:17.621Z,15.51
2023-05-10T19:18:20.345Z,15.17
2023-05-10T19:28:24.629Z,14.84
2023-05-10T19:38:27.394Z,14.93
2023-05-10T19:48:32.172Z,15.03
2023-05-10T19:58:35.617Z,14.98
2023-05-10T20:08:39.727Z,14.89
2023-05-10T20:18:42.381Z,14.80
2023-05-10T20:28:46.387Z,14.73
2023-05-10T20:38:49.282Z,14.64
2023-05-10T20:48:53.545Z,14.42
2023-05-10T20:58:56.269Z,14.26
2023-05-10T21:09:00.628Z,14.15
2023-05-10T21:19:03.688Z,13.93
2023-05-10T21:29:07.688Z,13.88
2023-05-10T21:39:10.355Z,13.90
2023-05-10T21:49:14.453Z,13.76
2023-05-10T21:59:17.939Z,13.58
2023-05-10T22:09:24.225Z,13.51
2023-05-10T22:19:26.938Z,13.40
2023-05-10T22:29:31.216Z,13.37
2023-05-10T22:39:34.599Z,13.41
2023-05-10T22:49:38.755Z,13.30
2023-05-10T22:59:42.338Z,13.20
2023-05-10T23:09:46.705Z,13.25
2023-05-10T23:19:49.459Z,13.30
2023-05-10T23:29:55.546Z,13.21
2023-05-10T23:39:58.488Z,13.17
2023-05-10T23:50:02.732Z,13.17
